sensor_id;sensor_type;location;lat;lon;timestamp;P1;durP1;ratioP1;P2;durP2;ratioP2
16352;SDS011;8286;51.274;9.542;2022-11-30T00:00:31;14.20;;;7.80;;
16352;SDS011;8286;51.274;9.542;2022-11-30T00:02:58;15.00;;;7.67;;
16352;SDS011;8286;51.274;9.542;2022-11-30T00:05:25;16.30;;;9.57;;
16352;SDS011;8286;51.274;9.542;2022-11-30T00:07:52;14.17;;;8.13;;
16352;SDS011;8286;51.274;9.542;2022-11-30T00:10:19;14.87;;;7.80;;
16352;SDS011;8286;51.274;9.542;2022-11-30T00:12:46;16.03;;;7.80;;
16352;SDS011;8286;51.274;9.542;2022-11-30T00:15:13;17.17;;;9.03;;
16352;SDS011;8286;51.274;9.542;2022-11-30T00:17:43;16.17;;;8.43;;
16352;SDS011;8286;51.274;9.542;2022-11-30T00:20:10;14.53;;;7.83;;
16352;SDS011;8286;51.274;9.542;2022-11-30T00:22:38;15.90;;;8.37;;
16352;SDS011;8286;51.274;9.542;2022-11-30T00:25:04;14.60;;;7.53;;
16352;SDS011;8286;51.274;9.542;2022-11-30T00:27:32;16.73;;;8.10;;
16352;SDS011;8286;51.274;9.542;2022-11-30T00:29:59;16.73;;;7.90;;
16352;SDS011;8286;51.274;9.542;2022-11-30T00:32:26;14.23;;;7.87;;
16352;SDS011;8286;51.274;9.542;2022-11-30T00:34:55;11.43;;;6.33;;
16352;SDS011;8286;51.274;9.542;2022-11-30T00:37:22;11.13;;;6.83;;
16352;SDS011;8286;51.274;9.542;2022-11-30T00:39:49;12.63;;;6.37;;
16352;SDS011;8286;51.274;9.542;2022-11-30T00:42:15;12.23;;;7.43;;
16352;SDS011;8286;51.274;9.542;2022-11-30T00:44:42;14.00;;;7.60;;
16352;SDS011;8286;51.274;9.542;2022-11-30T00:47:09;14.87;;;6.53;;
16352;SDS011;8286;51.274;9.542;2022-11-30T00:49:36;12.30;;;6.83;;
16352;SDS011;8286;51.274;9.542;2022-11-30T00:52:04;10.87;;;6.73;;
16352;SDS011;8286;51.274;9.542;2022-11-30T00:54:31;11.40;;;6.90;;
16352;SDS011;8286;51.274;9.542;2022-11-30T00:56:57;11.50;;;6.90;;
16352;SDS011;8286;51.274;9.542;2022-11-30T00:59:24;15.80;;;7.80;;
16352;SDS011;8286;51.274;9.542;2022-11-30T01:01:51;15.77;;;7.10;;
16352;SDS011;8286;51.274;9.542;2022-11-30T01:04:18;12.07;;;7.03;;
16352;SDS011;8286;51.274;9.542;2022-11-30T01:06:45;23.10;;;8.27;;
16352;SDS011;8286;51.274;9.542;2022-11-30T01:09:13;14.27;;;7.83;;
16352;SDS011;8286;51.274;9.542;2022-11-30T01:11:40;16.10;;;7.57;;
16352;SDS011;8286;51.274;9.542;2022-11-30T01:14:07;13.27;;;7.63;;
16352;SDS011;8286;51.274;9.542;2022-11-30T01:16:33;12.73;;;8.13;;
16352;SDS011;8286;51.274;9.542;2022-11-30T01:19:00;13.73;;;7.40;;
16352;SDS011;8286;51.274;9.542;2022-11-30T01:21:28;12.20;;;7.27;;
16352;SDS011;8286;51.274;9.542;2022-11-30T01:23:55;12.77;;;7.77;;
16352;SDS011;8286;51.274;9.542;2022-11-30T01:26:23;18.03;;;7.37;;
16352;SDS011;8286;51.274;9.542;2022-11-30T01:28:50;14.87;;;7.50;;
16352;SDS011;8286;51.274;9.542;2022-11-30T01:31:18;12.47;;;6.67;;
16352;SDS011;8286;51.274;9.542;2022-11-30T01:33:47;15.03;;;7.13;;
16352;SDS011;8286;51.274;9.542;2022-11-30T01:36:15;14.83;;;7.90;;
16352;SDS011;8286;51.274;9.542;2022-11-30T01:38:44;14.90;;;6.97;;
16352;SDS011;8286;51.274;9.542;2022-11-30T01:41:12;15.70;;;7.60;;
16352;SDS011;8286;51.274;9.542;2022-11-30T01:43:42;14.73;;;8.07;;
16352;SDS011;8286;51.274;9.542;2022-11-30T01:46:23;14.03;;;7.50;;
16352;SDS011;8286;51.274;9.542;2022-11-30T01:49:05;11.63;;;6.80;;
16352;SDS011;8286;51.274;9.542;2022-11-30T01:51:39;12.03;;;6.57;;
16352;SDS011;8286;51.274;9.542;2022-11-30T01:54:09;14.33;;;7.57;;
16352;SDS011;8286;51.274;9.542;2022-11-30T01:56:37;17.17;;;7.93;;
16352;SDS011;8286;51.274;9.542;2022-11-30T01:59:08;14.93;;;7.97;;
16352;SDS011;8286;51.274;9.542;2022-11-30T02:01:35;14.63;;;7.60;;
16352;SDS011;8286;51.274;9.542;2022-11-30T02:04:03;16.13;;;7.80;;
16352;SDS011;8286;51.274;9.542;2022-11-30T02:06:33;13.53;;;7.43;;
16352;SDS011;8286;51.274;9.542;2022-11-30T02:09:00;16.63;;;7.40;;
16352;SDS011;8286;51.274;9.542;2022-11-30T02:11:28;12.03;;;6.77;;
16352;SDS011;8286;51.274;9.542;2022-11-30T02:14:00;13.17;;;7.97;;
16352;SDS011;8286;51.274;9.542;2022-11-30T02:16:38;15.57;;;7.83;;
16352;SDS011;8286;51.274;9.542;2022-11-30T02:19:16;17.83;;;7.57;;
16352;SDS011;8286;51.274;9.542;2022-11-30T02:22:05;15.97;;;7.77;;
16352;SDS011;8286;51.274;9.542;2022-11-30T02:24:38;19.13;;;8.37;;
16352;SDS011;8286;51.274;9.542;2022-11-30T02:27:19;13.87;;;7.53;;
16352;SDS011;8286;51.274;9.542;2022-11-30T02:29:52;16.17;;;8.00;;
16352;SDS011;8286;51.274;9.542;2022-11-30T02:32:21;18.87;;;8.07;;
16352;SDS011;8286;51.274;9.542;2022-11-30T02:34:52;16.17;;;8.07;;
16352;SDS011;8286;51.274;9.542;2022-11-30T02:37:20;15.80;;;8.90;;
16352;SDS011;8286;51.274;9.542;2022-11-30T02:39:48;25.73;;;9.13;;
16352;SDS011;8286;51.274;9.542;2022-11-30T02:42:14;29.17;;;10.30;;
16352;SDS011;8286;51.274;9.542;2022-11-30T02:44:42;31.23;;;11.07;;
16352;SDS011;8286;51.274;9.542;2022-11-30T02:47:17;26.80;;;10.90;;
16352;SDS011;8286;51.274;9.542;2022-11-30T02:49:49;33.50;;;11.77;;
16352;SDS011;8286;51.274;9.542;2022-11-30T02:52:20;36.37;;;10.93;;
16352;SDS011;8286;51.274;9.542;2022-11-30T02:54:49;34.27;;;11.73;;
16352;SDS011;8286;51.274;9.542;2022-11-30T02:57:15;32.70;;;10.80;;
16352;SDS011;8286;51.274;9.542;2022-11-30T02:59:42;34.67;;;12.20;;
16352;SDS011;8286;51.274;9.542;2022-11-30T03:02:09;31.23;;;11.13;;
16352;SDS011;8286;51.274;9.542;2022-11-30T03:04:37;38.27;;;11.17;;
16352;SDS011;8286;51.274;9.542;2022-11-30T03:07:04;55.47;;;12.07;;
16352;SDS011;8286;51.274;9.542;2022-11-30T03:09:30;30.93;;;12.27;;
16352;SDS011;8286;51.274;9.542;2022-11-30T03:11:57;31.00;;;12.03;;
16352;SDS011;8286;51.274;9.542;2022-11-30T03:14:24;38.10;;;11.97;;
16352;SDS011;8286;51.274;9.542;2022-11-30T03:16:50;36.50;;;12.47;;
16352;SDS011;8286;51.274;9.542;2022-11-30T03:19:17;49.40;;;13.13;;
16352;SDS011;8286;51.274;9.542;2022-11-30T03:21:46;52.77;;;12.80;;
16352;SDS011;8286;51.274;9.542;2022-11-30T03:24:12;49.67;;;12.63;;
16352;SDS011;8286;51.274;9.542;2022-11-30T03:26:39;48.50;;;14.00;;
16352;SDS011;8286;51.274;9.542;2022-11-30T03:29:06;39.23;;;12.33;;
16352;SDS011;8286;51.274;9.542;2022-11-30T03:31:32;60.13;;;13.87;;
16352;SDS011;8286;51.274;9.542;2022-11-30T03:33:59;59.07;;;13.50;;
16352;SDS011;8286;51.274;9.542;2022-11-30T03:36:26;72.67;;;14.00;;
16352;SDS011;8286;51.274;9.542;2022-11-30T03:38:54;49.07;;;13.83;;
16352;SDS011;8286;51.274;9.542;2022-11-30T03:41:20;36.23;;;12.60;;
16352;SDS011;8286;51.274;9.542;2022-11-30T03:43:47;33.07;;;11.30;;
16352;SDS011;8286;51.274;9.542;2022-11-30T03:46:14;36.77;;;11.20;;
16352;SDS011;8286;51.274;9.542;2022-11-30T03:48:41;33.33;;;10.43;;
16352;SDS011;8286;51.274;9.542;2022-11-30T03:51:08;31.97;;;10.97;;
16352;SDS011;8286;51.274;9.542;2022-11-30T03:53:36;25.83;;;9.30;;
16352;SDS011;8286;51.274;9.542;2022-11-30T03:56:05;26.13;;;9.73;;
16352;SDS011;8286;51.274;9.542;2022-11-30T03:58:33;24.30;;;9.73;;
16352;SDS011;8286;51.274;9.542;2022-11-30T04:01:00;26.77;;;9.23;;
16352;SDS011;8286;51.274;9.542;2022-11-30T04:03:27;29.33;;;9.77;;
16352;SDS011;8286;51.274;9.542;2022-11-30T04:05:54;69.17;;;11.53;;
16352;SDS011;8286;51.274;9.542;2022-11-30T04:08:21;24.20;;;8.63;;
16352;SDS011;8286;51.274;9.542;2022-11-30T04:10:49;22.77;;;9.53;;
16352;SDS011;8286;51.274;9.542;2022-11-30T04:13:17;50.13;;;10.67;;
16352;SDS011;8286;51.274;9.542;2022-11-30T04:15:44;27.73;;;10.33;;
16352;SDS011;8286;51.274;9.542;2022-11-30T04:18:11;20.40;;;9.43;;
16352;SDS011;8286;51.274;9.542;2022-11-30T04:20:38;29.20;;;9.93;;
16352;SDS011;8286;51.274;9.542;2022-11-30T04:23:05;28.40;;;11.00;;
16352;SDS011;8286;51.274;9.542;2022-11-30T04:25:32;27.53;;;10.33;;
16352;SDS011;8286;51.274;9.542;2022-11-30T04:27:59;31.50;;;10.50;;
16352;SDS011;8286;51.274;9.542;2022-11-30T04:30:27;34.10;;;11.13;;
16352;SDS011;8286;51.274;9.542;2022-11-30T04:32:54;25.13;;;10.37;;
16352;SDS011;8286;51.274;9.542;2022-11-30T04:35:21;28.03;;;11.27;;
16352;SDS011;8286;51.274;9.542;2022-11-30T04:37:48;33.63;;;11.93;;
16352;SDS011;8286;51.274;9.542;2022-11-30T04:40:15;36.03;;;12.10;;
16352;SDS011;8286;51.274;9.542;2022-11-30T04:42:42;54.57;;;13.37;;
16352;SDS011;8286;51.274;9.542;2022-11-30T04:45:09;38.10;;;12.73;;
16352;SDS011;8286;51.274;9.542;2022-11-30T04:47:37;51.23;;;13.70;;
16352;SDS011;8286;51.274;9.542;2022-11-30T04:50:05;46.00;;;12.47;;
16352;SDS011;8286;51.274;9.542;2022-11-30T04:52:32;34.93;;;11.60;;
16352;SDS011;8286;51.274;9.542;2022-11-30T04:54:59;40.83;;;12.43;;
16352;SDS011;8286;51.274;9.542;2022-11-30T04:57:28;38.23;;;12.20;;
16352;SDS011;8286;51.274;9.542;2022-11-30T04:59:55;38.10;;;12.97;;
16352;SDS011;8286;51.274;9.542;2022-11-30T05:02:21;53.03;;;11.73;;
16352;SDS011;8286;51.274;9.542;2022-11-30T05:04:50;39.20;;;11.80;;
16352;SDS011;8286;51.274;9.542;2022-11-30T05:07:16;38.33;;;12.17;;
16352;SDS011;8286;51.274;9.542;2022-11-30T05:09:43;38.27;;;12.00;;
16352;SDS011;8286;51.274;9.542;2022-11-30T05:12:10;36.60;;;12.80;;
16352;SDS011;8286;51.274;9.542;2022-11-30T05:14:36;44.73;;;13.67;;
16352;SDS011;8286;51.274;9.542;2022-11-30T05:17:03;30.53;;;11.70;;
16352;SDS011;8286;51.274;9.542;2022-11-30T05:19:30;39.67;;;12.43;;
16352;SDS011;8286;51.274;9.542;2022-11-30T05:21:58;47.47;;;11.93;;
16352;SDS011;8286;51.274;9.542;2022-11-30T05:24:25;44.40;;;14.17;;
16352;SDS011;8286;51.274;9.542;2022-11-30T05:26:51;44.07;;;13.27;;
16352;SDS011;8286;51.274;9.542;2022-11-30T05:29:18;42.10;;;12.97;;
16352;SDS011;8286;51.274;9.542;2022-11-30T05:31:45;38.33;;;13.17;;
16352;SDS011;8286;51.274;9.542;2022-11-30T05:34:11;42.67;;;12.30;;
16352;SDS011;8286;51.274;9.542;2022-11-30T05:36:38;36.27;;;12.73;;
16352;SDS011;8286;51.274;9.542;2022-11-30T05:39:06;41.13;;;12.63;;
16352;SDS011;8286;51.274;9.542;2022-11-30T05:41:33;38.83;;;12.50;;
16352;SDS011;8286;51.274;9.542;2022-11-30T05:44:00;36.93;;;12.30;;
16352;SDS011;8286;51.274;9.542;2022-11-30T05:46:27;39.97;;;13.23;;
16352;SDS011;8286;51.274;9.542;2022-11-30T05:48:53;39.40;;;12.77;;
16352;SDS011;8286;51.274;9.542;2022-11-30T05:51:20;38.07;;;12.77;;
16352;SDS011;8286;51.274;9.542;2022-11-30T05:53:47;41.07;;;13.00;;
16352;SDS011;8286;51.274;9.542;2022-11-30T05:56:16;42.93;;;14.87;;
16352;SDS011;8286;51.274;9.542;2022-11-30T05:58:44;38.80;;;12.37;;
16352;SDS011;8286;51.274;9.542;2022-11-30T06:01:16;41.27;;;13.57;;
16352;SDS011;8286;51.274;9.542;2022-11-30T06:03:43;50.27;;;13.43;;
16352;SDS011;8286;51.274;9.542;2022-11-30T06:06:09;33.60;;;13.00;;
16352;SDS011;8286;51.274;9.542;2022-11-30T06:08:36;37.50;;;12.33;;
16352;SDS011;8286;51.274;9.542;2022-11-30T06:11:03;34.63;;;12.53;;
16352;SDS011;8286;51.274;9.542;2022-11-30T06:13:31;42.13;;;10.90;;
16352;SDS011;8286;51.274;9.542;2022-11-30T06:15:58;31.83;;;12.10;;
16352;SDS011;8286;51.274;9.542;2022-11-30T06:18:25;33.47;;;12.40;;
16352;SDS011;8286;51.274;9.542;2022-11-30T06:20:52;31.30;;;11.33;;
16352;SDS011;8286;51.274;9.542;2022-11-30T06:23:18;37.33;;;11.77;;
16352;SDS011;8286;51.274;9.542;2022-11-30T06:25:45;32.53;;;10.87;;
16352;SDS011;8286;51.274;9.542;2022-11-30T06:28:12;33.13;;;11.87;;
16352;SDS011;8286;51.274;9.542;2022-11-30T06:30:40;29.83;;;11.00;;
16352;SDS011;8286;51.274;9.542;2022-11-30T06:33:07;34.20;;;11.60;;
16352;SDS011;8286;51.274;9.542;2022-11-30T06:35:33;32.07;;;10.77;;
16352;SDS011;8286;51.274;9.542;2022-11-30T06:38:00;28.17;;;10.43;;
16352;SDS011;8286;51.274;9.542;2022-11-30T06:40:27;31.97;;;10.37;;
16352;SDS011;8286;51.274;9.542;2022-11-30T06:42:53;27.47;;;10.50;;
16352;SDS011;8286;51.274;9.542;2022-11-30T06:45:20;31.37;;;11.10;;
16352;SDS011;8286;51.274;9.542;2022-11-30T06:47:48;28.47;;;11.37;;
16352;SDS011;8286;51.274;9.542;2022-11-30T06:50:15;30.77;;;11.80;;
16352;SDS011;8286;51.274;9.542;2022-11-30T06:52:42;33.87;;;11.17;;
16352;SDS011;8286;51.274;9.542;2022-11-30T06:55:09;33.90;;;10.93;;
16352;SDS011;8286;51.274;9.542;2022-11-30T06:57:36;26.37;;;11.27;;
16352;SDS011;8286;51.274;9.542;2022-11-30T07:00:03;29.83;;;11.00;;
16352;SDS011;8286;51.274;9.542;2022-11-30T07:02:31;31.60;;;11.57;;
16352;SDS011;8286;51.274;9.542;2022-11-30T07:04:59;31.57;;;11.37;;
16352;SDS011;8286;51.274;9.542;2022-11-30T07:07:27;29.53;;;11.20;;
16352;SDS011;8286;51.274;9.542;2022-11-30T07:09:54;31.60;;;11.37;;
16352;SDS011;8286;51.274;9.542;2022-11-30T07:12:21;30.07;;;11.37;;
16352;SDS011;8286;51.274;9.542;2022-11-30T07:14:48;29.73;;;10.83;;
16352;SDS011;8286;51.274;9.542;2022-11-30T07:17:16;31.40;;;11.57;;
16352;SDS011;8286;51.274;9.542;2022-11-30T07:19:43;28.17;;;11.17;;
16352;SDS011;8286;51.274;9.542;2022-11-30T07:22:12;35.00;;;12.97;;
16352;SDS011;8286;51.274;9.542;2022-11-30T07:24:39;31.77;;;11.90;;
16352;SDS011;8286;51.274;9.542;2022-11-30T07:27:23;31.93;;;11.53;;
16352;SDS011;8286;51.274;9.542;2022-11-30T07:29:50;32.10;;;11.23;;
16352;SDS011;8286;51.274;9.542;2022-11-30T07:32:17;30.23;;;10.80;;
16352;SDS011;8286;51.274;9.542;2022-11-30T07:34:44;28.80;;;11.10;;
16352;SDS011;8286;51.274;9.542;2022-11-30T07:37:12;28.70;;;11.53;;
16352;SDS011;8286;51.274;9.542;2022-11-30T07:39:39;38.63;;;13.27;;
16352;SDS011;8286;51.274;9.542;2022-11-30T07:42:06;34.20;;;12.03;;
16352;SDS011;8286;51.274;9.542;2022-11-30T07:44:33;30.93;;;11.80;;
16352;SDS011;8286;51.274;9.542;2022-11-30T07:47:00;33.43;;;12.10;;
16352;SDS011;8286;51.274;9.542;2022-11-30T07:49:26;35.40;;;14.33;;
16352;SDS011;8286;51.274;9.542;2022-11-30T07:51:53;39.53;;;12.67;;
16352;SDS011;8286;51.274;9.542;2022-11-30T07:54:21;42.90;;;13.63;;
16352;SDS011;8286;51.274;9.542;2022-11-30T07:56:48;35.27;;;12.27;;
16352;SDS011;8286;51.274;9.542;2022-11-30T07:59:14;34.87;;;12.00;;
16352;SDS011;8286;51.274;9.542;2022-11-30T08:01:41;42.17;;;13.73;;
16352;SDS011;8286;51.274;9.542;2022-11-30T08:04:08;36.13;;;13.23;;
16352;SDS011;8286;51.274;9.542;2022-11-30T08:06:38;35.50;;;13.33;;
16352;SDS011;8286;51.274;9.542;2022-11-30T08:09:05;38.30;;;12.53;;
16352;SDS011;8286;51.274;9.542;2022-11-30T08:11:33;35.07;;;12.83;;
16352;SDS011;8286;51.274;9.542;2022-11-30T08:14:01;40.50;;;13.67;;
16352;SDS011;8286;51.274;9.542;2022-11-30T08:16:29;40.30;;;13.30;;
16352;SDS011;8286;51.274;9.542;2022-11-30T08:18:57;39.63;;;13.80;;
16352;SDS011;8286;51.274;9.542;2022-11-30T08:21:24;36.20;;;12.20;;
16352;SDS011;8286;51.274;9.542;2022-11-30T08:23:51;39.93;;;12.67;;
16352;SDS011;8286;51.274;9.542;2022-11-30T08:26:21;38.33;;;13.80;;
16352;SDS011;8286;51.274;9.542;2022-11-30T08:28:50;33.03;;;12.20;;
16352;SDS011;8286;51.274;9.542;2022-11-30T08:31:18;37.30;;;12.37;;
16352;SDS011;8286;51.274;9.542;2022-11-30T08:33:46;41.40;;;12.47;;
16352;SDS011;8286;51.274;9.542;2022-11-30T08:36:13;37.20;;;12.67;;
16352;SDS011;8286;51.274;9.542;2022-11-30T08:38:41;41.60;;;12.67;;
16352;SDS011;8286;51.274;9.542;2022-11-30T08:41:09;32.93;;;12.17;;
16352;SDS011;8286;51.274;9.542;2022-11-30T08:43:37;36.30;;;12.93;;
16352;SDS011;8286;51.274;9.542;2022-11-30T08:46:06;36.87;;;13.20;;
16352;SDS011;8286;51.274;9.542;2022-11-30T08:48:35;37.43;;;13.00;;
16352;SDS011;8286;51.274;9.542;2022-11-30T08:51:02;32.57;;;12.67;;
16352;SDS011;8286;51.274;9.542;2022-11-30T08:53:30;28.13;;;11.97;;
16352;SDS011;8286;51.274;9.542;2022-11-30T08:55:57;27.00;;;12.07;;
16352;SDS011;8286;51.274;9.542;2022-11-30T08:58:25;35.37;;;13.00;;
16352;SDS011;8286;51.274;9.542;2022-11-30T09:00:52;38.23;;;13.03;;
16352;SDS011;8286;51.274;9.542;2022-11-30T09:03:20;32.93;;;12.43;;
16352;SDS011;8286;51.274;9.542;2022-11-30T09:05:47;34.53;;;12.30;;
16352;SDS011;8286;51.274;9.542;2022-11-30T09:08:14;30.53;;;12.23;;
16352;SDS011;8286;51.274;9.542;2022-11-30T09:10:40;32.87;;;12.93;;
16352;SDS011;8286;51.274;9.542;2022-11-30T09:13:07;29.70;;;11.73;;
16352;SDS011;8286;51.274;9.542;2022-11-30T09:15:34;28.40;;;11.90;;
16352;SDS011;8286;51.274;9.542;2022-11-30T09:18:01;32.70;;;11.87;;
16352;SDS011;8286;51.274;9.542;2022-11-30T09:20:29;35.53;;;11.77;;
16352;SDS011;8286;51.274;9.542;2022-11-30T09:22:57;30.87;;;11.73;;
16352;SDS011;8286;51.274;9.542;2022-11-30T09:25:24;35.00;;;12.50;;
16352;SDS011;8286;51.274;9.542;2022-11-30T09:27:51;32.50;;;13.33;;
16352;SDS011;8286;51.274;9.542;2022-11-30T09:30:18;28.90;;;11.50;;
16352;SDS011;8286;51.274;9.542;2022-11-30T09:32:44;32.80;;;11.57;;
16352;SDS011;8286;51.274;9.542;2022-11-30T09:35:11;26.87;;;11.80;;
16352;SDS011;8286;51.274;9.542;2022-11-30T09:37:40;29.20;;;12.27;;
16352;SDS011;8286;51.274;9.542;2022-11-30T09:40:07;24.00;;;11.03;;
16352;SDS011;8286;51.274;9.542;2022-11-30T09:42:40;28.97;;;11.50;;
16352;SDS011;8286;51.274;9.542;2022-11-30T09:45:12;30.37;;;12.13;;
16352;SDS011;8286;51.274;9.542;2022-11-30T09:47:54;27.00;;;11.93;;
16352;SDS011;8286;51.274;9.542;2022-11-30T09:50:40;29.00;;;11.70;;
16352;SDS011;8286;51.274;9.542;2022-11-30T09:53:11;26.27;;;10.13;;
16352;SDS011;8286;51.274;9.542;2022-11-30T09:55:41;23.37;;;10.30;;
16352;SDS011;8286;51.274;9.542;2022-11-30T09:58:10;25.57;;;11.30;;
16352;SDS011;8286;51.274;9.542;2022-11-30T10:00:47;27.13;;;9.70;;
16352;SDS011;8286;51.274;9.542;2022-11-30T10:03:13;22.23;;;9.83;;
16352;SDS011;8286;51.274;9.542;2022-11-30T10:05:43;21.63;;;9.40;;
16352;SDS011;8286;51.274;9.542;2022-11-30T10:08:22;24.00;;;10.47;;
16352;SDS011;8286;51.274;9.542;2022-11-30T10:11:10;19.80;;;9.30;;
16352;SDS011;8286;51.274;9.542;2022-11-30T10:13:46;25.43;;;11.27;;
16352;SDS011;8286;51.274;9.542;2022-11-30T10:16:20;27.23;;;9.87;;
16352;SDS011;8286;51.274;9.542;2022-11-30T10:18:52;23.53;;;9.80;;
16352;SDS011;8286;51.274;9.542;2022-11-30T10:21:28;22.23;;;10.00;;
16352;SDS011;8286;51.274;9.542;2022-11-30T10:24:07;22.30;;;9.97;;
16352;SDS011;8286;51.274;9.542;2022-11-30T10:26:44;24.23;;;9.27;;
16352;SDS011;8286;51.274;9.542;2022-11-30T10:29:18;24.50;;;9.27;;
16352;SDS011;8286;51.274;9.542;2022-11-30T10:31:46;24.97;;;9.67;;
16352;SDS011;8286;51.274;9.542;2022-11-30T10:34:17;18.80;;;8.57;;
16352;SDS011;8286;51.274;9.542;2022-11-30T10:36:46;19.03;;;9.20;;
16352;SDS011;8286;51.274;9.542;2022-11-30T10:39:19;19.77;;;9.00;;
16352;SDS011;8286;51.274;9.542;2022-11-30T10:41:50;19.07;;;8.20;;
16352;SDS011;8286;51.274;9.542;2022-11-30T10:44:18;18.20;;;8.13;;
16352;SDS011;8286;51.274;9.542;2022-11-30T10:46:51;22.50;;;8.30;;
16352;SDS011;8286;51.274;9.542;2022-11-30T10:49:21;17.60;;;7.90;;
16352;SDS011;8286;51.274;9.542;2022-11-30T10:51:50;20.87;;;8.70;;
16352;SDS011;8286;51.274;9.542;2022-11-30T10:54:20;17.27;;;8.13;;
16352;SDS011;8286;51.274;9.542;2022-11-30T10:56:48;18.20;;;8.03;;
16352;SDS011;8286;51.274;9.542;2022-11-30T10:59:16;15.27;;;7.40;;
16352;SDS011;8286;51.274;9.542;2022-11-30T11:01:44;18.73;;;7.87;;
16352;SDS011;8286;51.274;9.542;2022-11-30T11:04:15;18.73;;;7.83;;
16352;SDS011;8286;51.274;9.542;2022-11-30T11:06:43;13.87;;;6.47;;
16352;SDS011;8286;51.274;9.542;2022-11-30T11:12:13;10.63;;;6.43;;
16352;SDS011;8286;51.274;9.542;2022-11-30T11:14:41;12.27;;;6.37;;
16352;SDS011;8286;51.274;9.542;2022-11-30T11:17:19;12.43;;;6.53;;
16352;SDS011;8286;51.274;9.542;2022-11-30T11:19:48;13.73;;;6.20;;
16352;SDS011;8286;51.274;9.542;2022-11-30T11:22:16;11.57;;;6.00;;
16352;SDS011;8286;51.274;9.542;2022-11-30T11:24:45;11.37;;;6.40;;
16352;SDS011;8286;51.274;9.542;2022-11-30T11:27:19;11.97;;;6.27;;
16352;SDS011;8286;51.274;9.542;2022-11-30T11:29:57;12.70;;;6.80;;
16352;SDS011;8286;51.274;9.542;2022-11-30T11:32:27;13.63;;;7.50;;
16352;SDS011;8286;51.274;9.542;2022-11-30T11:34:54;15.43;;;7.20;;
16352;SDS011;8286;51.274;9.542;2022-11-30T11:37:22;14.07;;;6.83;;
16352;SDS011;8286;51.274;9.542;2022-11-30T11:39:58;12.37;;;6.63;;
16352;SDS011;8286;51.274;9.542;2022-11-30T11:42:32;11.10;;;6.07;;
16352;SDS011;8286;51.274;9.542;2022-11-30T11:45:00;10.13;;;5.43;;
16352;SDS011;8286;51.274;9.542;2022-11-30T11:47:31;13.13;;;5.57;;
16352;SDS011;8286;51.274;9.542;2022-11-30T11:50:05;11.57;;;5.97;;
16352;SDS011;8286;51.274;9.542;2022-11-30T11:52:33;14.27;;;5.40;;
16352;SDS011;8286;51.274;9.542;2022-11-30T11:55:02;15.63;;;6.33;;
16352;SDS011;8286;51.274;9.542;2022-11-30T11:57:33;10.10;;;5.43;;
16352;SDS011;8286;51.274;9.542;2022-11-30T12:00:04;10.27;;;5.40;;
16352;SDS011;8286;51.274;9.542;2022-11-30T12:02:33;11.40;;;5.10;;
16352;SDS011;8286;51.274;9.542;2022-11-30T12:05:04;11.73;;;5.67;;
16352;SDS011;8286;51.274;9.542;2022-11-30T12:07:36;11.80;;;6.23;;
16352;SDS011;8286;51.274;9.542;2022-11-30T12:10:13;15.50;;;7.53;;
16352;SDS011;8286;51.274;9.542;2022-11-30T12:12:47;11.63;;;6.77;;
16352;SDS011;8286;51.274;9.542;2022-11-30T12:15:13;16.13;;;7.73;;
16352;SDS011;8286;51.274;9.542;2022-11-30T12:17:44;19.70;;;9.03;;
16352;SDS011;8286;51.274;9.542;2022-11-30T12:20:16;15.33;;;7.17;;
16352;SDS011;8286;51.274;9.542;2022-11-30T12:22:53;18.67;;;8.40;;
16352;SDS011;8286;51.274;9.542;2022-11-30T12:25:31;17.57;;;8.20;;
16352;SDS011;8286;51.274;9.542;2022-11-30T12:28:12;24.03;;;8.83;;
16352;SDS011;8286;51.274;9.542;2022-11-30T12:30:43;17.00;;;7.83;;
16352;SDS011;8286;51.274;9.542;2022-11-30T12:33:18;16.47;;;7.50;;
16352;SDS011;8286;51.274;9.542;2022-11-30T12:35:57;16.80;;;7.83;;
16352;SDS011;8286;51.274;9.542;2022-11-30T12:38:29;20.50;;;8.60;;
16352;SDS011;8286;51.274;9.542;2022-11-30T12:41:03;18.00;;;8.03;;
16352;SDS011;8286;51.274;9.542;2022-11-30T12:43:40;17.60;;;8.50;;
16352;SDS011;8286;51.274;9.542;2022-11-30T12:46:14;20.13;;;8.00;;
16352;SDS011;8286;51.274;9.542;2022-11-30T12:48:48;20.83;;;8.87;;
16352;SDS011;8286;51.274;9.542;2022-11-30T12:51:19;19.33;;;8.60;;
16352;SDS011;8286;51.274;9.542;2022-11-30T12:53:48;21.33;;;8.63;;
16352;SDS011;8286;51.274;9.542;2022-11-30T12:56:23;20.73;;;8.53;;
16352;SDS011;8286;51.274;9.542;2022-11-30T12:58:58;21.30;;;8.77;;
16352;SDS011;8286;51.274;9.542;2022-11-30T13:01:37;19.10;;;7.97;;
16352;SDS011;8286;51.274;9.542;2022-11-30T13:04:13;20.63;;;8.87;;
16352;SDS011;8286;51.274;9.542;2022-11-30T13:06:43;23.00;;;8.37;;
16352;SDS011;8286;51.274;9.542;2022-11-30T13:09:13;21.87;;;9.50;;
16352;SDS011;8286;51.274;9.542;2022-11-30T13:11:45;19.77;;;8.57;;
16352;SDS011;8286;51.274;9.542;2022-11-30T13:14:19;19.73;;;7.93;;
16352;SDS011;8286;51.274;9.542;2022-11-30T13:16:47;23.60;;;8.80;;
16352;SDS011;8286;51.274;9.542;2022-11-30T13:19:20;22.07;;;9.10;;
16352;SDS011;8286;51.274;9.542;2022-11-30T13:21:52;21.87;;;9.77;;
16352;SDS011;8286;51.274;9.542;2022-11-30T13:24:23;18.27;;;7.87;;
16352;SDS011;8286;51.274;9.542;2022-11-30T13:26:56;18.93;;;8.07;;
16352;SDS011;8286;51.274;9.542;2022-11-30T13:32:27;24.07;;;9.33;;
16352;SDS011;8286;51.274;9.542;2022-11-30T13:37:59;15.63;;;7.43;;
16352;SDS011;8286;51.274;9.542;2022-11-30T13:40:27;20.83;;;8.87;;
16352;SDS011;8286;51.274;9.542;2022-11-30T13:42:55;19.87;;;9.30;;
16352;SDS011;8286;51.274;9.542;2022-11-30T13:45:26;21.37;;;8.70;;
16352;SDS011;8286;51.274;9.542;2022-11-30T13:47:56;18.43;;;9.10;;
16352;SDS011;8286;51.274;9.542;2022-11-30T13:50:25;20.03;;;8.77;;
16352;SDS011;8286;51.274;9.542;2022-11-30T13:53:05;21.47;;;9.10;;
16352;SDS011;8286;51.274;9.542;2022-11-30T13:55:50;21.30;;;8.97;;
16352;SDS011;8286;51.274;9.542;2022-11-30T13:58:22;18.23;;;7.97;;
16352;SDS011;8286;51.274;9.542;2022-11-30T14:00:59;16.17;;;8.10;;
16352;SDS011;8286;51.274;9.542;2022-11-30T14:03:41;18.60;;;8.53;;
16352;SDS011;8286;51.274;9.542;2022-11-30T14:12:35;20.33;;;9.20;;
16352;SDS011;8286;51.274;9.542;2022-11-30T14:18:14;18.10;;;9.17;;
16352;SDS011;8286;51.274;9.542;2022-11-30T14:20:45;16.13;;;7.67;;
16352;SDS011;8286;51.274;9.542;2022-11-30T14:23:14;16.93;;;8.97;;
16352;SDS011;8286;51.274;9.542;2022-11-30T14:25:45;17.87;;;7.83;;
16352;SDS011;8286;51.274;9.542;2022-11-30T14:28:14;16.13;;;8.17;;
16352;SDS011;8286;51.274;9.542;2022-11-30T14:30:43;14.83;;;7.50;;
16352;SDS011;8286;51.274;9.542;2022-11-30T14:33:12;15.67;;;8.13;;
16352;SDS011;8286;51.274;9.542;2022-11-30T14:35:42;14.67;;;8.33;;
16352;SDS011;8286;51.274;9.542;2022-11-30T14:38:14;14.60;;;7.47;;
16352;SDS011;8286;51.274;9.542;2022-11-30T14:40:48;13.27;;;7.97;;
16352;SDS011;8286;51.274;9.542;2022-11-30T14:43:16;18.03;;;8.57;;
16352;SDS011;8286;51.274;9.542;2022-11-30T14:45:45;10.63;;;6.83;;
16352;SDS011;8286;51.274;9.542;2022-11-30T14:48:23;12.80;;;7.50;;
16352;SDS011;8286;51.274;9.542;2022-11-30T14:50:50;15.20;;;7.37;;
16352;SDS011;8286;51.274;9.542;2022-11-30T14:53:21;11.13;;;6.83;;
16352;SDS011;8286;51.274;9.542;2022-11-30T14:55:55;13.07;;;7.30;;
16352;SDS011;8286;51.274;9.542;2022-11-30T14:58:28;13.33;;;6.87;;
16352;SDS011;8286;51.274;9.542;2022-11-30T15:00:56;11.00;;;6.97;;
16352;SDS011;8286;51.274;9.542;2022-11-30T15:03:25;13.70;;;6.57;;
16352;SDS011;8286;51.274;9.542;2022-11-30T15:05:54;12.43;;;6.43;;
16352;SDS011;8286;51.274;9.542;2022-11-30T15:08:22;10.43;;;6.47;;
16352;SDS011;8286;51.274;9.542;2022-11-30T15:11:03;11.00;;;6.70;;